sensor_id;sensor_type;location;lat;lon;timestamp;P1;durP1;ratioP1;P2;durP2;ratioP2
39314;SDS011;28703;44.412;11.918;2023-02-12T00:00:19;63.97;;;42.47;;
39314;SDS011;28703;44.412;11.918;2023-02-12T00:02:46;62.95;;;40.90;;
39314;SDS011;28703;44.412;11.918;2023-02-12T00:05:12;63.65;;;41.40;;
39314;SDS011;28703;44.412;11.918;2023-02-12T00:07:40;65.20;;;40.80;;
39314;SDS011;28703;44.412;11.918;2023-02-12T00:10:06;61.30;;;38.80;;
39314;SDS011;28703;44.412;11.918;2023-02-12T00:12:36;59.85;;;38.65;;
39314;SDS011;28703;44.412;11.918;2023-02-12T00:15:02;62.15;;;38.30;;
39314;SDS011;28703;44.412;11.918;2023-02-12T00:17:28;61.40;;;38.70;;
39314;SDS011;28703;44.412;11.918;2023-02-12T00:19:54;64.00;;;40.35;;
39314;SDS011;28703;44.412;11.918;2023-02-12T00:22:21;65.32;;;41.53;;
39314;SDS011;28703;44.412;11.918;2023-02-12T00:25:05;60.10;;;39.08;;
39314;SDS011;28703;44.412;11.918;2023-02-12T00:27:32;62.58;;;40.60;;
39314;SDS011;28703;44.412;11.918;2023-02-12T00:29:59;60.67;;;39.40;;
39314;SDS011;28703;44.412;11.918;2023-02-12T00:32:46;60.47;;;38.85;;
39314;SDS011;28703;44.412;11.918;2023-02-12T00:35:12;64.10;;;40.00;;
39314;SDS011;28703;44.412;11.918;2023-02-12T00:37:38;60.33;;;39.10;;
39314;SDS011;28703;44.412;11.918;2023-02-12T00:40:50;59.58;;;38.10;;
39314;SDS011;28703;44.412;11.918;2023-02-12T00:43:19;59.53;;;38.25;;
39314;SDS011;28703;44.412;11.918;2023-02-12T00:45:45;60.70;;;39.45;;
39314;SDS011;28703;44.412;11.918;2023-02-12T00:48:12;65.75;;;40.22;;
39314;SDS011;28703;44.412;11.918;2023-02-12T00:50:57;68.63;;;42.47;;
39314;SDS011;28703;44.412;11.918;2023-02-12T00:53:26;67.20;;;41.92;;
39314;SDS011;28703;44.412;11.918;2023-02-12T00:55:56;71.70;;;44.70;;
39314;SDS011;28703;44.412;11.918;2023-02-12T00:58:22;70.07;;;44.83;;
39314;SDS011;28703;44.412;11.918;2023-02-12T01:03:34;68.55;;;43.65;;
39314;SDS011;28703;44.412;11.918;2023-02-12T01:06:21;65.55;;;41.50;;
39314;SDS011;28703;44.412;11.918;2023-02-12T01:08:50;66.53;;;41.10;;
39314;SDS011;28703;44.412;11.918;2023-02-12T01:11:35;66.60;;;41.75;;
39314;SDS011;28703;44.412;11.918;2023-02-12T01:14:04;63.00;;;40.38;;
39314;SDS011;28703;44.412;11.918;2023-02-12T01:16:31;62.42;;;42.00;;
39314;SDS011;28703;44.412;11.918;2023-02-12T01:19:00;68.95;;;41.53;;
39314;SDS011;28703;44.412;11.918;2023-02-12T01:21:29;62.92;;;41.15;;
39314;SDS011;28703;44.412;11.918;2023-02-12T01:23:57;65.07;;;41.50;;
39314;SDS011;28703;44.412;11.918;2023-02-12T01:26:24;63.08;;;40.47;;
39314;SDS011;28703;44.412;11.918;2023-02-12T01:28:52;64.70;;;39.05;;
39314;SDS011;28703;44.412;11.918;2023-02-12T01:31:24;65.53;;;43.13;;
39314;SDS011;28703;44.412;11.918;2023-02-12T01:33:51;64.72;;;38.33;;
39314;SDS011;28703;44.412;11.918;2023-02-12T01:36:20;61.28;;;38.08;;
39314;SDS011;28703;44.412;11.918;2023-02-12T01:38:47;58.67;;;38.15;;
39314;SDS011;28703;44.412;11.918;2023-02-12T01:41:21;62.58;;;38.63;;
39314;SDS011;28703;44.412;11.918;2023-02-12T01:47:02;64.32;;;39.97;;
39314;SDS011;28703;44.412;11.918;2023-02-12T01:49:40;68.93;;;39.40;;
39314;SDS011;28703;44.412;11.918;2023-02-12T01:52:21;64.47;;;40.40;;
39314;SDS011;28703;44.412;11.918;2023-02-12T01:54:58;55.58;;;36.63;;
39314;SDS011;28703;44.412;11.918;2023-02-12T01:57:28;67.28;;;38.60;;
39314;SDS011;28703;44.412;11.918;2023-02-12T01:59:56;58.85;;;37.00;;
39314;SDS011;28703;44.412;11.918;2023-02-12T02:02:28;57.67;;;36.35;;
39314;SDS011;28703;44.412;11.918;2023-02-12T02:05:04;54.60;;;36.33;;
39314;SDS011;28703;44.412;11.918;2023-02-12T02:07:35;61.50;;;36.70;;
39314;SDS011;28703;44.412;11.918;2023-02-12T02:10:07;57.25;;;36.88;;
39314;SDS011;28703;44.412;11.918;2023-02-12T02:12:36;60.00;;;38.78;;
39314;SDS011;28703;44.412;11.918;2023-02-12T02:18:22;59.90;;;38.50;;
39314;SDS011;28703;44.412;11.918;2023-02-12T02:21:18;57.20;;;35.15;;
39314;SDS011;28703;44.412;11.918;2023-02-12T02:27:22;57.25;;;34.80;;
39314;SDS011;28703;44.412;11.918;2023-02-12T02:30:33;59.72;;;33.78;;
39314;SDS011;28703;44.412;11.918;2023-02-12T02:39:22;49.78;;;31.63;;
39314;SDS011;28703;44.412;11.918;2023-02-12T02:42:09;48.13;;;30.80;;
39314;SDS011;28703;44.412;11.918;2023-02-12T02:47:14;34.70;;;22.05;;
39314;SDS011;28703;44.412;11.918;2023-02-12T02:50:03;36.10;;;21.60;;
39314;SDS011;28703;44.412;11.918;2023-02-12T02:52:47;30.52;;;18.75;;
39314;SDS011;28703;44.412;11.918;2023-02-12T02:55:21;34.25;;;18.83;;
39314;SDS011;28703;44.412;11.918;2023-02-12T02:57:55;24.90;;;17.63;;
39314;SDS011;28703;44.412;11.918;2023-02-12T03:00:35;26.73;;;17.77;;
39314;SDS011;28703;44.412;11.918;2023-02-12T03:03:24;26.05;;;16.75;;
39314;SDS011;28703;44.412;11.918;2023-02-12T03:05:52;31.77;;;18.48;;
39314;SDS011;28703;44.412;11.918;2023-02-12T03:08:23;26.67;;;17.92;;
39314;SDS011;28703;44.412;11.918;2023-02-12T03:10:59;30.25;;;19.42;;
39314;SDS011;28703;44.412;11.918;2023-02-12T03:13:36;27.55;;;17.77;;
39314;SDS011;28703;44.412;11.918;2023-02-12T03:16:22;33.83;;;19.65;;
39314;SDS011;28703;44.412;11.918;2023-02-12T03:24:38;32.22;;;19.70;;
39314;SDS011;28703;44.412;11.918;2023-02-12T03:29:46;32.97;;;20.77;;
39314;SDS011;28703;44.412;11.918;2023-02-12T03:38:06;43.50;;;25.80;;
39314;SDS011;28703;44.412;11.918;2023-02-12T03:40:45;91.38;;;37.67;;
39314;SDS011;28703;44.412;11.918;2023-02-12T03:49:16;44.83;;;24.42;;
39314;SDS011;28703;44.412;11.918;2023-02-12T03:51:57;40.35;;;24.65;;
39314;SDS011;28703;44.412;11.918;2023-02-12T03:54:24;40.70;;;25.42;;
39314;SDS011;28703;44.412;11.918;2023-02-12T03:59:23;38.17;;;24.25;;
39314;SDS011;28703;44.412;11.918;2023-02-12T04:02:15;44.13;;;24.38;;
39314;SDS011;28703;44.412;11.918;2023-02-12T04:04:43;36.20;;;24.10;;
39314;SDS011;28703;44.412;11.918;2023-02-12T04:07:13;34.65;;;22.13;;
39314;SDS011;28703;44.412;11.918;2023-02-12T04:09:40;38.13;;;23.17;;
39314;SDS011;28703;44.412;11.918;2023-02-12T04:15:10;41.47;;;22.15;;
39314;SDS011;28703;44.412;11.918;2023-02-12T04:24:15;40.70;;;24.80;;
39314;SDS011;28703;44.412;11.918;2023-02-12T04:27:01;32.08;;;22.08;;
39314;SDS011;28703;44.412;11.918;2023-02-12T04:29:54;36.75;;;24.02;;
39314;SDS011;28703;44.412;11.918;2023-02-12T04:35:35;35.60;;;23.40;;
39314;SDS011;28703;44.412;11.918;2023-02-12T04:38:12;36.13;;;23.13;;
39314;SDS011;28703;44.412;11.918;2023-02-12T04:40:46;32.83;;;21.55;;
39314;SDS011;28703;44.412;11.918;2023-02-12T04:43:13;39.22;;;22.25;;
39314;SDS011;28703;44.412;11.918;2023-02-12T04:45:42;36.33;;;22.73;;
39314;SDS011;28703;44.412;11.918;2023-02-12T04:48:08;35.88;;;22.23;;
39314;SDS011;28703;44.412;11.918;2023-02-12T04:50:39;34.60;;;21.40;;
39314;SDS011;28703;44.412;11.918;2023-02-12T04:53:19;37.92;;;24.33;;
39314;SDS011;28703;44.412;11.918;2023-02-12T04:55:46;33.97;;;22.52;;
39314;SDS011;28703;44.412;11.918;2023-02-12T04:58:32;32.58;;;22.73;;
39314;SDS011;28703;44.412;11.918;2023-02-12T05:00:58;34.08;;;22.65;;
39314;SDS011;28703;44.412;11.918;2023-02-12T05:06:09;39.55;;;22.10;;
39314;SDS011;28703;44.412;11.918;2023-02-12T05:08:54;37.25;;;23.80;;
39314;SDS011;28703;44.412;11.918;2023-02-12T05:11:21;36.30;;;22.70;;
39314;SDS011;28703;44.412;11.918;2023-02-12T05:13:48;41.28;;;23.55;;
39314;SDS011;28703;44.412;11.918;2023-02-12T05:16:15;38.67;;;22.08;;
39314;SDS011;28703;44.412;11.918;2023-02-12T05:18:41;37.85;;;22.90;;
39314;SDS011;28703;44.412;11.918;2023-02-12T05:21:26;35.10;;;21.75;;
39314;SDS011;28703;44.412;11.918;2023-02-12T05:23:52;39.40;;;23.08;;
39314;SDS011;28703;44.412;11.918;2023-02-12T05:29:25;32.50;;;22.13;;
39314;SDS011;28703;44.412;11.918;2023-02-12T05:31:51;34.67;;;21.33;;
39314;SDS011;28703;44.412;11.918;2023-02-12T05:34:35;30.90;;;20.13;;
39314;SDS011;28703;44.412;11.918;2023-02-12T05:37:04;29.70;;;19.20;;
39314;SDS011;28703;44.412;11.918;2023-02-12T05:39:30;34.45;;;19.23;;
39314;SDS011;28703;44.412;11.918;2023-02-12T05:42:14;31.20;;;19.42;;
39314;SDS011;28703;44.412;11.918;2023-02-12T05:44:40;33.95;;;20.13;;
39314;SDS011;28703;44.412;11.918;2023-02-12T05:47:07;31.33;;;18.45;;
39314;SDS011;28703;44.412;11.918;2023-02-12T05:49:33;31.77;;;19.00;;
39314;SDS011;28703;44.412;11.918;2023-02-12T05:51:59;30.67;;;20.15;;
39314;SDS011;28703;44.412;11.918;2023-02-12T05:54:28;31.55;;;21.02;;
39314;SDS011;28703;44.412;11.918;2023-02-12T05:57:37;30.67;;;19.95;;
39314;SDS011;28703;44.412;11.918;2023-02-12T06:06:33;26.13;;;17.65;;
39314;SDS011;28703;44.412;11.918;2023-02-12T06:09:03;28.00;;;18.42;;
39314;SDS011;28703;44.412;11.918;2023-02-12T06:17:41;33.00;;;18.80;;
39314;SDS011;28703;44.412;11.918;2023-02-12T06:20:34;28.23;;;18.88;;
39314;SDS011;28703;44.412;11.918;2023-02-12T06:23:51;29.73;;;19.83;;
39314;SDS011;28703;44.412;11.918;2023-02-12T06:42:47;30.75;;;18.58;;
39314;SDS011;28703;44.412;11.918;2023-02-12T06:45:14;33.00;;;20.83;;
39314;SDS011;28703;44.412;11.918;2023-02-12T06:48:06;30.40;;;19.13;;
39314;SDS011;28703;44.412;11.918;2023-02-12T06:51:01;32.58;;;20.23;;
39314;SDS011;28703;44.412;11.918;2023-02-12T06:53:44;30.02;;;19.73;;
39314;SDS011;28703;44.412;11.918;2023-02-12T06:56:13;28.42;;;17.52;;
39314;SDS011;28703;44.412;11.918;2023-02-12T06:59:00;32.38;;;18.75;;
39314;SDS011;28703;44.412;11.918;2023-02-12T07:05:09;31.15;;;21.02;;
39314;SDS011;28703;44.412;11.918;2023-02-12T07:07:36;38.35;;;21.92;;
39314;SDS011;28703;44.412;11.918;2023-02-12T07:16:47;31.77;;;21.25;;
39314;SDS011;28703;44.412;11.918;2023-02-12T07:19:42;34.67;;;19.02;;
39314;SDS011;28703;44.412;11.918;2023-02-12T07:22:14;33.35;;;20.90;;
39314;SDS011;28703;44.412;11.918;2023-02-12T07:25:13;28.08;;;18.33;;
39314;SDS011;28703;44.412;11.918;2023-02-12T07:27:54;33.30;;;21.75;;
39314;SDS011;28703;44.412;11.918;2023-02-12T07:30:54;32.75;;;23.27;;
39314;SDS011;28703;44.412;11.918;2023-02-12T07:34:17;32.78;;;22.55;;
39314;SDS011;28703;44.412;11.918;2023-02-12T07:36:57;38.55;;;21.58;;
39314;SDS011;28703;44.412;11.918;2023-02-12T07:39:30;35.10;;;20.33;;
39314;SDS011;28703;44.412;11.918;2023-02-12T07:48:45;22.40;;;15.23;;
39314;SDS011;28703;44.412;11.918;2023-02-12T07:53:50;24.88;;;17.30;;
39314;SDS011;28703;44.412;11.918;2023-02-12T07:57:01;24.40;;;17.08;;
39314;SDS011;28703;44.412;11.918;2023-02-12T07:59:38;27.20;;;18.77;;
39314;SDS011;28703;44.412;11.918;2023-02-12T08:02:16;24.77;;;16.83;;
39314;SDS011;28703;44.412;11.918;2023-02-12T08:04:45;23.63;;;17.20;;
39314;SDS011;28703;44.412;11.918;2023-02-12T08:10:10;49.35;;;33.35;;
39314;SDS011;28703;44.412;11.918;2023-02-12T08:12:52;36.53;;;24.40;;
39314;SDS011;28703;44.412;11.918;2023-02-12T08:15:24;31.50;;;20.85;;
39314;SDS011;28703;44.412;11.918;2023-02-12T08:18:10;23.25;;;16.33;;
39314;SDS011;28703;44.412;11.918;2023-02-12T08:20:48;27.02;;;16.73;;
39314;SDS011;28703;44.412;11.918;2023-02-12T08:23:35;20.58;;;15.60;;
39314;SDS011;28703;44.412;11.918;2023-02-12T08:26:17;22.90;;;15.38;;
39314;SDS011;28703;44.412;11.918;2023-02-12T08:28:59;22.80;;;16.00;;
39314;SDS011;28703;44.412;11.918;2023-02-12T08:34:44;20.60;;;15.13;;
39314;SDS011;28703;44.412;11.918;2023-02-12T08:37:57;21.48;;;15.23;;
39314;SDS011;28703;44.412;11.918;2023-02-12T08:40:32;27.58;;;18.30;;
39314;SDS011;28703;44.412;11.918;2023-02-12T08:43:02;22.98;;;14.90;;
39314;SDS011;28703;44.412;11.918;2023-02-12T08:45:28;23.55;;;16.63;;
39314;SDS011;28703;44.412;11.918;2023-02-12T08:47:54;24.67;;;17.15;;
39314;SDS011;28703;44.412;11.918;2023-02-12T08:50:22;35.17;;;26.13;;
39314;SDS011;28703;44.412;11.918;2023-02-12T08:52:48;48.53;;;32.05;;
39314;SDS011;28703;44.412;11.918;2023-02-12T08:55:24;70.00;;;45.53;;
39314;SDS011;28703;44.412;11.918;2023-02-12T08:57:54;93.00;;;58.75;;
39314;SDS011;28703;44.412;11.918;2023-02-12T09:03:24;82.35;;;50.10;;
39314;SDS011;28703;44.412;11.918;2023-02-12T09:06:11;64.50;;;42.97;;
39314;SDS011;28703;44.412;11.918;2023-02-12T09:09:02;50.35;;;33.13;;
39314;SDS011;28703;44.412;11.918;2023-02-12T09:11:29;28.98;;;20.38;;
39314;SDS011;28703;44.412;11.918;2023-02-12T09:14:04;24.55;;;16.90;;
39314;SDS011;28703;44.412;11.918;2023-02-12T09:16:41;21.10;;;15.25;;
39314;SDS011;28703;44.412;11.918;2023-02-12T09:19:08;20.83;;;14.43;;
39314;SDS011;28703;44.412;11.918;2023-02-12T09:21:37;18.20;;;12.90;;
39314;SDS011;28703;44.412;11.918;2023-02-12T09:24:06;21.48;;;13.63;;
39314;SDS011;28703;44.412;11.918;2023-02-12T09:26:34;20.08;;;13.27;;
39314;SDS011;28703;44.412;11.918;2023-02-12T09:29:12;18.27;;;13.35;;
39314;SDS011;28703;44.412;11.918;2023-02-12T09:31:46;19.17;;;13.45;;
39314;SDS011;28703;44.412;11.918;2023-02-12T09:34:34;18.13;;;13.23;;
39314;SDS011;28703;44.412;11.918;2023-02-12T09:37:10;22.73;;;14.90;;
39314;SDS011;28703;44.412;11.918;2023-02-12T09:39:36;21.73;;;15.23;;
39314;SDS011;28703;44.412;11.918;2023-02-12T09:45:14;20.13;;;15.48;;
39314;SDS011;28703;44.412;11.918;2023-02-12T09:47:57;21.05;;;15.30;;
39314;SDS011;28703;44.412;11.918;2023-02-12T09:53:39;22.20;;;15.95;;
39314;SDS011;28703;44.412;11.918;2023-02-12T09:56:25;21.05;;;15.50;;
39314;SDS011;28703;44.412;11.918;2023-02-12T10:07:57;31.52;;;17.48;;
39314;SDS011;28703;44.412;11.918;2023-02-12T10:10:53;33.20;;;18.95;;
39314;SDS011;28703;44.412;11.918;2023-02-12T10:16:42;26.75;;;17.88;;
39314;SDS011;28703;44.412;11.918;2023-02-12T10:28:24;25.13;;;17.02;;
39314;SDS011;28703;44.412;11.918;2023-02-12T10:31:21;33.08;;;19.63;;
39314;SDS011;28703;44.412;11.918;2023-02-12T10:34:25;25.77;;;17.55;;
39314;SDS011;28703;44.412;11.918;2023-02-12T10:40:16;27.83;;;20.00;;
39314;SDS011;28703;44.412;11.918;2023-02-12T10:42:51;29.95;;;20.75;;
39314;SDS011;28703;44.412;11.918;2023-02-12T10:45:24;28.90;;;19.73;;
39314;SDS011;28703;44.412;11.918;2023-02-12T10:51:19;29.90;;;20.00;;
39314;SDS011;28703;44.412;11.918;2023-02-12T10:57:28;33.72;;;23.80;;
39314;SDS011;28703;44.412;11.918;2023-02-12T11:00:21;31.02;;;22.30;;
39314;SDS011;28703;44.412;11.918;2023-02-12T11:05:37;37.10;;;24.67;;
39314;SDS011;28703;44.412;11.918;2023-02-12T11:08:42;37.08;;;25.15;;
39314;SDS011;28703;44.412;11.918;2023-02-12T11:11:29;39.60;;;26.45;;
39314;SDS011;28703;44.412;11.918;2023-02-12T11:14:14;40.03;;;27.58;;
39314;SDS011;28703;44.412;11.918;2023-02-12T11:17:29;39.75;;;26.10;;
39314;SDS011;28703;44.412;11.918;2023-02-12T11:23:29;40.72;;;29.77;;
39314;SDS011;28703;44.412;11.918;2023-02-12T11:26:22;42.20;;;28.88;;
39314;SDS011;28703;44.412;11.918;2023-02-12T11:28:55;40.72;;;29.02;;
39314;SDS011;28703;44.412;11.918;2023-02-12T11:34:31;48.80;;;32.97;;
39314;SDS011;28703;44.412;11.918;2023-02-12T11:37:18;46.72;;;32.15;;
39314;SDS011;28703;44.412;11.918;2023-02-12T11:39:49;53.30;;;34.25;;
39314;SDS011;28703;44.412;11.918;2023-02-12T11:42:16;51.28;;;35.45;;
39314;SDS011;28703;44.412;11.918;2023-02-12T11:44:57;52.80;;;35.95;;
39314;SDS011;28703;44.412;11.918;2023-02-12T11:47:33;58.45;;;37.58;;
39314;SDS011;28703;44.412;11.918;2023-02-12T11:50:30;49.53;;;35.97;;
39314;SDS011;28703;44.412;11.918;2023-02-12T11:53:16;50.63;;;37.25;;
39314;SDS011;28703;44.412;11.918;2023-02-12T11:56:14;53.35;;;38.08;;
39314;SDS011;28703;44.412;11.918;2023-02-12T11:58:41;55.90;;;39.45;;
39314;SDS011;28703;44.412;11.918;2023-02-12T12:06:36;57.88;;;39.13;;
39314;SDS011;28703;44.412;11.918;2023-02-12T12:12:24;57.92;;;40.38;;
39314;SDS011;28703;44.412;11.918;2023-02-12T12:15:32;56.58;;;41.70;;
39314;SDS011;28703;44.412;11.918;2023-02-12T12:18:46;59.40;;;43.25;;
39314;SDS011;28703;44.412;11.918;2023-02-12T12:22:08;54.95;;;40.30;;
39314;SDS011;28703;44.412;11.918;2023-02-12T12:34:26;58.45;;;43.55;;
39314;SDS011;28703;44.412;11.918;2023-02-12T12:37:35;58.22;;;44.50;;
39314;SDS011;28703;44.412;11.918;2023-02-12T12:50:44;63.95;;;46.30;;
39314;SDS011;28703;44.412;11.918;2023-02-12T12:59:55;76.53;;;48.80;;
39314;SDS011;28703;44.412;11.918;2023-02-12T13:08:46;67.45;;;51.30;;
39314;SDS011;28703;44.412;11.918;2023-02-12T13:11:46;65.90;;;48.28;;
39314;SDS011;28703;44.412;11.918;2023-02-12T13:23:49;69.85;;;50.92;;
39314;SDS011;28703;44.412;11.918;2023-02-12T13:36:02;59.47;;;46.92;;
39314;SDS011;28703;44.412;11.918;2023-02-12T13:41:37;57.97;;;44.72;;
39314;SDS011;28703;44.412;11.918;2023-02-12T13:44:37;62.00;;;45.78;;
39314;SDS011;28703;44.412;11.918;2023-02-12T13:47:23;60.95;;;45.00;;
39314;SDS011;28703;44.412;11.918;2023-02-12T13:50:46;56.50;;;43.15;;
39314;SDS011;28703;44.412;11.918;2023-02-12T13:53:14;54.35;;;44.70;;
39314;SDS011;28703;44.412;11.918;2023-02-12T13:56:06;52.97;;;42.20;;
39314;SDS011;28703;44.412;11.918;2023-02-12T13:58:38;50.88;;;40.45;;
39314;SDS011;28703;44.412;11.918;2023-02-12T14:01:44;54.63;;;40.75;;
39314;SDS011;28703;44.412;11.918;2023-02-12T14:04:44;55.58;;;42.72;;
39314;SDS011;28703;44.412;11.918;2023-02-12T14:07:20;48.13;;;38.83;;
39314;SDS011;28703;44.412;11.918;2023-02-12T14:12:47;46.58;;;37.13;;
39314;SDS011;28703;44.412;11.918;2023-02-12T14:15:36;53.83;;;39.85;;
39314;SDS011;28703;44.412;11.918;2023-02-12T14:24:22;41.88;;;31.10;;
39314;SDS011;28703;44.412;11.918;2023-02-12T14:27:28;37.00;;;29.02;;
39314;SDS011;28703;44.412;11.918;2023-02-12T14:37:55;41.42;;;29.77;;
39314;SDS011;28703;44.412;11.918;2023-02-12T14:43:31;39.42;;;29.73;;
39314;SDS011;28703;44.412;11.918;2023-02-12T14:45:58;39.08;;;31.33;;
39314;SDS011;28703;44.412;11.918;2023-02-12T14:49:17;38.15;;;29.25;;
39314;SDS011;28703;44.412;11.918;2023-02-12T14:51:59;38.25;;;29.88;;
39314;SDS011;28703;44.412;11.918;2023-02-12T14:54:54;35.40;;;29.13;;
39314;SDS011;28703;44.412;11.918;2023-02-12T14:57:36;38.47;;;28.38;;
39314;SDS011;28703;44.412;11.918;2023-02-12T15:00:19;35.95;;;28.98;;
39314;SDS011;28703;44.412;11.918;2023-02-12T15:02:52;34.92;;;29.13;;
39314;SDS011;28703;44.412;11.918;2023-02-12T15:05:30;37.50;;;28.02;;
39314;SDS011;28703;44.412;11.918;2023-02-12T15:08:06;40.55;;;29.63;;
39314;SDS011;28703;44.412;11.918;2023-02-12T15:11:05;31.30;;;26.42;;
39314;SDS011;28703;44.412;11.918;2023-02-12T15:14:00;34.13;;;28.38;;
39314;SDS011;28703;44.412;11.918;2023-02-12T15:30:47;38.75;;;32.30;;
39314;SDS011;28703;44.412;11.918;2023-02-12T15:33:20;47.85;;;29.50;;
39314;SDS011;28703;44.412;11.918;2023-02-12T15:35:54;40.42;;;31.45;;
39314;SDS011;28703;44.412;11.918;2023-02-12T15:44:23;36.63;;;29.90;;
39314;SDS011;28703;44.412;11.918;2023-02-12T15:49:37;38.10;;;30.25;;
39314;SDS011;28703;44.412;11.918;2023-02-12T15:58:17;39.30;;;30.20;;
39314;SDS011;28703;44.412;11.918;2023-02-12T16:00:53;39.35;;;30.92;;
39314;SDS011;28703;44.412;11.918;2023-02-12T16:03:27;41.10;;;31.30;;
39314;SDS011;28703;44.412;11.918;2023-02-12T16:06:09;40.97;;;31.60;;
39314;SDS011;28703;44.412;11.918;2023-02-12T16:08:46;45.92;;;32.53;;
39314;SDS011;28703;44.412;11.918;2023-02-12T16:11:27;46.47;;;33.80;;
39314;SDS011;28703;44.412;11.918;2023-02-12T16:14:57;45.45;;;33.53;;
39314;SDS011;28703;44.412;11.918;2023-02-12T16:17:21;47.83;;;33.65;;
39314;SDS011;28703;44.412;11.918;2023-02-12T16:20:04;44.25;;;33.38;;
39314;SDS011;28703;44.412;11.918;2023-02-12T16:23:04;43.85;;;32.95;;
39314;SDS011;28703;44.412;11.918;2023-02-12T16:28:19;50.53;;;33.92;;
39314;SDS011;28703;44.412;11.918;2023-02-12T16:30:51;55.03;;;35.75;;
39314;SDS011;28703;44.412;11.918;2023-02-12T16:41:49;52.75;;;34.95;;
39314;SDS011;28703;44.412;11.918;2023-02-12T16:44:34;51.33;;;35.30;;
39314;SDS011;28703;44.412;11.918;2023-02-12T16:47:01;53.05;;;35.70;;
39314;SDS011;28703;44.412;11.918;2023-02-12T16:49:28;54.47;;;37.00;;
39314;SDS011;28703;44.412;11.918;2023-02-12T16:52:16;61.33;;;37.05;;
39314;SDS011;28703;44.412;11.918;2023-02-12T16:54:54;51.80;;;36.03;;
39314;SDS011;28703;44.412;11.918;2023-02-12T16:57:20;55.63;;;36.03;;
39314;SDS011;28703;44.412;11.918;2023-02-12T16:59:46;58.20;;;37.63;;
39314;SDS011;28703;44.412;11.918;2023-02-12T17:02:13;48.40;;;35.88;;
39314;SDS011;28703;44.412;11.918;2023-02-12T17:04:44;50.28;;;36.30;;
39314;SDS011;28703;44.412;11.918;2023-02-12T17:07:21;52.60;;;37.05;;
39314;SDS011;28703;44.412;11.918;2023-02-12T17:10:02;58.72;;;35.70;;
39314;SDS011;28703;44.412;11.918;2023-02-12T17:12:28;57.88;;;36.80;;
39314;SDS011;28703;44.412;11.918;2023-02-12T17:15:09;53.17;;;36.53;;
39314;SDS011;28703;44.412;11.918;2023-02-12T17:17:45;64.90;;;38.53;;
39314;SDS011;28703;44.412;11.918;2023-02-12T17:20:16;60.22;;;37.05;;
39314;SDS011;28703;44.412;11.918;2023-02-12T17:22:57;51.25;;;36.55;;
39314;SDS011;28703;44.412;11.918;2023-02-12T17:25:29;60.25;;;37.45;;
39314;SDS011;28703;44.412;11.918;2023-02-12T17:28:06;60.28;;;37.72;;
39314;SDS011;28703;44.412;11.918;2023-02-12T17:30:35;60.47;;;40.00;;
39314;SDS011;28703;44.412;11.918;2023-02-12T17:33:12;59.15;;;37.47;;
39314;SDS011;28703;44.412;11.918;2023-02-12T17:36:00;58.88;;;40.00;;
39314;SDS011;28703;44.412;11.918;2023-02-12T17:38:48;58.90;;;41.00;;
39314;SDS011;28703;44.412;11.918;2023-02-12T17:43:59;66.68;;;45.60;;
39314;SDS011;28703;44.412;11.918;2023-02-12T17:46:35;63.00;;;43.00;;
39314;SDS011;28703;44.412;11.918;2023-02-12T17:49:05;71.07;;;42.92;;
39314;SDS011;28703;44.412;11.918;2023-02-12T17:51:45;60.92;;;41.90;;
39314;SDS011;28703;44.412;11.918;2023-02-12T17:54:14;65.68;;;42.03;;
39314;SDS011;28703;44.412;11.918;2023-02-12T17:56:51;65.07;;;41.67;;
39314;SDS011;28703;44.412;11.918;2023-02-12T17:59:27;59.97;;;40.50;;
39314;SDS011;28703;44.412;11.918;2023-02-12T18:01:53;67.68;;;42.75;;
39314;SDS011;28703;44.412;11.918;2023-02-12T18:04:22;69.03;;;44.72;;
39314;SDS011;28703;44.412;11.918;2023-02-12T18:06:48;67.63;;;45.67;;
39314;SDS011;28703;44.412;11.918;2023-02-12T18:09:27;69.38;;;44.38;;
39314;SDS011;28703;44.412;11.918;2023-02-12T18:11:58;65.30;;;44.55;;
39314;SDS011;28703;44.412;11.918;2023-02-12T18:14:24;73.78;;;45.65;;
39314;SDS011;28703;44.412;11.918;2023-02-12T18:16:53;68.22;;;44.92;;
39314;SDS011;28703;44.412;11.918;2023-02-12T18:19:29;60.28;;;41.13;;
39314;SDS011;28703;44.412;11.918;2023-02-12T18:22:13;63.50;;;40.53;;
39314;SDS011;28703;44.412;11.918;2023-02-12T18:24:42;56.97;;;40.63;;
39314;SDS011;28703;44.412;11.918;2023-02-12T18:27:12;58.55;;;38.33;;
39314;SDS011;28703;44.412;11.918;2023-02-12T18:29:55;64.72;;;40.10;;
39314;SDS011;28703;44.412;11.918;2023-02-12T18:32:31;62.03;;;40.22;;
39314;SDS011;28703;44.412;11.918;2023-02-12T18:35:05;60.65;;;37.58;;
39314;SDS011;28703;44.412;11.918;2023-02-12T18:37:37;62.47;;;40.42;;
39314;SDS011;28703;44.412;11.918;2023-02-12T18:40:12;60.47;;;41.45;;
39314;SDS011;28703;44.412;11.918;2023-02-12T18:42:44;63.15;;;39.80;;
39314;SDS011;28703;44.412;11.918;2023-02-12T18:45:25;57.83;;;39.30;;
39314;SDS011;28703;44.412;11.918;2023-02-12T18:47:51;56.15;;;39.58;;
39314;SDS011;28703;44.412;11.918;2023-02-12T18:50:17;66.18;;;44.50;;
39314;SDS011;28703;44.412;11.918;2023-02-12T18:52:53;68.10;;;42.95;;
39314;SDS011;28703;44.412;11.918;2023-02-12T18:55:24;70.18;;;45.25;;
39314;SDS011;28703;44.412;11.918;2023-02-12T18:57:59;77.25;;;43.17;;
39314;SDS011;28703;44.412;11.918;2023-02-12T19:00:38;79.22;;;46.85;;
39314;SDS011;28703;44.412;11.918;2023-02-12T19:03:07;70.25;;;46.17;;
39314;SDS011;28703;44.412;11.918;2023-02-12T19:05:36;74.95;;;47.38;;
39314;SDS011;28703;44.412;11.918;2023-02-12T19:08:08;78.70;;;49.00;;
39314;SDS011;28703;44.412;11.918;2023-02-12T19:10:37;73.30;;;48.20;;
39314;SDS011;28703;44.412;11.918;2023-02-12T19:13:09;73.45;;;46.45;;
39314;SDS011;28703;44.412;11.918;2023-02-12T19:15:45;74.43;;;47.30;;
39314;SDS011;28703;44.412;11.918;2023-02-12T19:18:20;72.32;;;46.15;;
39314;SDS011;28703;44.412;11.918;2023-02-12T19:20:47;71.15;;;46.13;;
39314;SDS011;28703;44.412;11.918;2023-02-12T19:23:21;69.75;;;46.50;;
39314;SDS011;28703;44.412;11.918;2023-02-12T19:26:19;74.90;;;48.47;;
39314;SDS011;28703;44.412;11.918;2023-02-12T19:28:55;70.05;;;46.83;;
39314;SDS011;28703;44.412;11.918;2023-02-12T19:31:28;67.88;;;46.42;;
39314;SDS011;28703;44.412;11.918;2023-02-12T19:34:10;73.32;;;45.70;;
39314;SDS011;28703;44.412;11.918;2023-02-12T19:36:56;66.57;;;47.00;;
39314;SDS011;28703;44.412;11.918;2023-02-12T19:39:29;68.18;;;46.75;;
39314;SDS011;28703;44.412;11.918;2023-02-12T19:42:01;78.65;;;50.08;;
39314;SDS011;28703;44.412;11.918;2023-02-12T19:44:44;73.47;;;48.78;;
39314;SDS011;28703;44.412;11.918;2023-02-12T19:47:41;71.53;;;48.10;;
39314;SDS011;28703;44.412;11.918;2023-02-12T19:50:23;75.60;;;47.47;;
39314;SDS011;28703;44.412;11.918;2023-02-12T19:53:01;73.88;;;49.40;;
39314;SDS011;28703;44.412;11.918;2023-02-12T19:55:33;75.43;;;50.28;;
39314;SDS011;28703;44.412;11.918;2023-02-12T19:58:03;77.88;;;50.15;;
39314;SDS011;28703;44.412;11.918;2023-02-12T20:00:34;75.68;;;49.55;;